sensor_id;sensor_type;location;lat;lon;timestamp;temperature;humidity
16313;DHT22;8265;52.622;13.296;2022-09-03T00:02:44;11.10;99.90
16313;DHT22;8265;52.622;13.296;2022-09-03T00:08:05;11.00;99.90
16313;DHT22;8265;52.622;13.296;2022-09-03T00:13:26;11.20;99.90
16313;DHT22;8265;52.622;13.296;2022-09-03T00:18:48;11.30;99.90
16313;DHT22;8265;52.622;13.296;2022-09-03T00:24:08;11.40;99.90
16313;DHT22;8265;52.622;13.296;2022-09-03T00:29:30;11.30;99.90
16313;DHT22;8265;52.622;13.296;2022-09-03T00:34:49;11.20;99.90
16313;DHT22;8265;52.622;13.296;2022-09-03T00:40:13;11.30;99.90
16313;DHT22;8265;52.622;13.296;2022-09-03T00:45:33;11.40;99.90
16313;DHT22;8265;52.622;13.296;2022-09-03T00:51:01;11.60;99.90
16313;DHT22;8265;52.622;13.296;2022-09-03T00:56:14;11.70;99.90
16313;DHT22;8265;52.622;13.296;2022-09-03T01:01:35;11.60;99.90
16313;DHT22;8265;52.622;13.296;2022-09-03T01:06:57;11.60;99.90
16313;DHT22;8265;52.622;13.296;2022-09-03T01:12:19;11.70;99.90
16313;DHT22;8265;52.622;13.296;2022-09-03T01:17:41;11.70;99.90
16313;DHT22;8265;52.622;13.296;2022-09-03T01:23:23;11.60;99.90
16313;DHT22;8265;52.622;13.296;2022-09-03T01:28:29;11.20;99.90
16313;DHT22;8265;52.622;13.296;2022-09-03T01:33:42;10.90;99.90
16313;DHT22;8265;52.622;13.296;2022-09-03T01:39:02;10.90;99.90
16313;DHT22;8265;52.622;13.296;2022-09-03T01:44:24;11.00;99.90
16313;DHT22;8265;52.622;13.296;2022-09-03T01:49:44;11.00;99.90
16313;DHT22;8265;52.622;13.296;2022-09-03T01:55:09;10.90;99.90
16313;DHT22;8265;52.622;13.296;2022-09-03T02:00:25;10.70;99.90
16313;DHT22;8265;52.622;13.296;2022-09-03T02:05:45;10.60;99.90
16313;DHT22;8265;52.622;13.296;2022-09-03T02:11:07;10.50;99.90
16313;DHT22;8265;52.622;13.296;2022-09-03T02:16:30;10.50;99.90
16313;DHT22;8265;52.622;13.296;2022-09-03T02:21:49;10.40;99.90
16313;DHT22;8265;52.622;13.296;2022-09-03T02:27:09;10.40;99.90
16313;DHT22;8265;52.622;13.296;2022-09-03T02:32:30;10.20;99.90
16313;DHT22;8265;52.622;13.296;2022-09-03T02:37:51;10.10;99.90
16313;DHT22;8265;52.622;13.296;2022-09-03T02:43:14;10.00;99.90
16313;DHT22;8265;52.622;13.296;2022-09-03T02:48:33;10.00;99.90
16313;DHT22;8265;52.622;13.296;2022-09-03T02:53:54;10.10;99.90
16313;DHT22;8265;52.622;13.296;2022-09-03T02:59:15;10.20;99.90
16313;DHT22;8265;52.622;13.296;2022-09-03T03:04:36;10.20;99.90
16313;DHT22;8265;52.622;13.296;2022-09-03T03:09:57;10.30;99.90
16313;DHT22;8265;52.622;13.296;2022-09-03T03:15:18;10.00;99.90
16313;DHT22;8265;52.622;13.296;2022-09-03T03:20:39;9.80;99.90
16313;DHT22;8265;52.622;13.296;2022-09-03T03:26:02;9.70;99.90
16313;DHT22;8265;52.622;13.296;2022-09-03T03:31:21;9.60;99.90
16313;DHT22;8265;52.622;13.296;2022-09-03T03:36:42;9.60;99.90
16313;DHT22;8265;52.622;13.296;2022-09-03T03:42:03;9.50;99.90
16313;DHT22;8265;52.622;13.296;2022-09-03T03:47:24;9.50;99.90
16313;DHT22;8265;52.622;13.296;2022-09-03T03:52:45;9.60;99.90
16313;DHT22;8265;52.622;13.296;2022-09-03T03:58:05;9.40;99.90
16313;DHT22;8265;52.622;13.296;2022-09-03T04:03:26;9.20;99.90
16313;DHT22;8265;52.622;13.296;2022-09-03T04:08:48;9.30;99.90
16313;DHT22;8265;52.622;13.296;2022-09-03T04:14:08;9.50;99.90
16313;DHT22;8265;52.622;13.296;2022-09-03T04:19:29;9.70;99.90
16313;DHT22;8265;52.622;13.296;2022-09-03T04:24:50;9.80;99.90
16313;DHT22;8265;52.622;13.296;2022-09-03T04:30:12;9.90;99.90
16313;DHT22;8265;52.622;13.296;2022-09-03T04:35:32;10.00;99.90
16313;DHT22;8265;52.622;13.296;2022-09-03T04:40:53;10.10;99.90
16313;DHT22;8265;52.622;13.296;2022-09-03T04:46:14;10.30;99.90
16313;DHT22;8265;52.622;13.296;2022-09-03T04:51:38;10.40;99.90
16313;DHT22;8265;52.622;13.296;2022-09-03T04:56:56;10.50;99.90
16313;DHT22;8265;52.622;13.296;2022-09-03T05:02:17;10.70;99.90
16313;DHT22;8265;52.622;13.296;2022-09-03T05:07:38;10.80;99.90
16313;DHT22;8265;52.622;13.296;2022-09-03T05:13:00;10.80;99.90
16313;DHT22;8265;52.622;13.296;2022-09-03T05:18:20;11.00;99.90
16313;DHT22;8265;52.622;13.296;2022-09-03T05:23:42;11.20;99.90
16313;DHT22;8265;52.622;13.296;2022-09-03T05:29:03;11.40;99.90
16313;DHT22;8265;52.622;13.296;2022-09-03T05:34:23;11.50;99.90
16313;DHT22;8265;52.622;13.296;2022-09-03T05:39:44;11.70;99.90
16313;DHT22;8265;52.622;13.296;2022-09-03T05:45:08;11.80;99.90
16313;DHT22;8265;52.622;13.296;2022-09-03T05:50:26;11.70;99.90
16313;DHT22;8265;52.622;13.296;2022-09-03T05:55:55;11.50;99.90
16313;DHT22;8265;52.622;13.296;2022-09-03T06:01:11;11.60;99.90
16313;DHT22;8265;52.622;13.296;2022-09-03T06:06:29;11.90;99.90
16313;DHT22;8265;52.622;13.296;2022-09-03T06:11:50;12.20;99.90
16313;DHT22;8265;52.622;13.296;2022-09-03T06:17:11;12.60;99.90
16313;DHT22;8265;52.622;13.296;2022-09-03T06:22:33;12.80;99.90
16313;DHT22;8265;52.622;13.296;2022-09-03T06:27:53;13.00;99.90
16313;DHT22;8265;52.622;13.296;2022-09-03T06:33:14;13.20;99.90
16313;DHT22;8265;52.622;13.296;2022-09-03T06:38:35;13.60;99.90
16313;DHT22;8265;52.622;13.296;2022-09-03T06:43:57;13.90;99.90
16313;DHT22;8265;52.622;13.296;2022-09-03T06:49:16;14.10;99.90
16313;DHT22;8265;52.622;13.296;2022-09-03T06:54:38;14.30;99.90
16313;DHT22;8265;52.622;13.296;2022-09-03T06:59:58;14.40;99.90
16313;DHT22;8265;52.622;13.296;2022-09-03T07:05:19;14.60;99.90
16313;DHT22;8265;52.622;13.296;2022-09-03T07:10:40;14.70;99.90
16313;DHT22;8265;52.622;13.296;2022-09-03T07:16:02;14.80;99.90
16313;DHT22;8265;52.622;13.296;2022-09-03T07:21:23;15.20;99.90
16313;DHT22;8265;52.622;13.296;2022-09-03T07:26:43;15.70;99.90
16313;DHT22;8265;52.622;13.296;2022-09-03T07:32:05;16.10;99.90
16313;DHT22;8265;52.622;13.296;2022-09-03T07:37:25;16.60;99.90
16313;DHT22;8265;52.622;13.296;2022-09-03T07:42:46;17.10;99.90
16313;DHT22;8265;52.622;13.296;2022-09-03T07:48:07;17.50;99.90
16313;DHT22;8265;52.622;13.296;2022-09-03T07:53:28;17.60;99.90
16313;DHT22;8265;52.622;13.296;2022-09-03T07:58:49;17.60;99.90
16313;DHT22;8265;52.622;13.296;2022-09-03T08:04:10;17.70;99.90
16313;DHT22;8265;52.622;13.296;2022-09-03T08:09:31;17.90;99.90
16313;DHT22;8265;52.622;13.296;2022-09-03T08:14:52;18.10;99.90
16313;DHT22;8265;52.622;13.296;2022-09-03T08:20:13;18.30;99.90
16313;DHT22;8265;52.622;13.296;2022-09-03T08:25:34;18.20;99.90
16313;DHT22;8265;52.622;13.296;2022-09-03T08:30:55;17.80;99.90
16313;DHT22;8265;52.622;13.296;2022-09-03T08:36:16;17.80;99.90
16313;DHT22;8265;52.622;13.296;2022-09-03T08:41:44;17.90;99.90
16313;DHT22;8265;52.622;13.296;2022-09-03T08:46:59;18.10;99.90
16313;DHT22;8265;52.622;13.296;2022-09-03T08:52:22;18.70;99.90
16313;DHT22;8265;52.622;13.296;2022-09-03T08:57:42;18.80;99.90
16313;DHT22;8265;52.622;13.296;2022-09-03T09:03:06;18.60;99.90
16313;DHT22;8265;52.622;13.296;2022-09-03T09:08:25;18.40;99.90
16313;DHT22;8265;52.622;13.296;2022-09-03T09:13:44;18.40;99.90
16313;DHT22;8265;52.622;13.296;2022-09-03T09:19:16;18.40;99.90
16313;DHT22;8265;52.622;13.296;2022-09-03T09:24:25;18.70;99.90
16313;DHT22;8265;52.622;13.296;2022-09-03T09:29:46;18.80;99.90
16313;DHT22;8265;52.622;13.296;2022-09-03T09:35:09;19.00;99.90
16313;DHT22;8265;52.622;13.296;2022-09-03T09:40:30;19.20;99.90
16313;DHT22;8265;52.622;13.296;2022-09-03T09:45:49;19.40;99.90
16313;DHT22;8265;52.622;13.296;2022-09-03T09:51:11;19.40;99.90
16313;DHT22;8265;52.622;13.296;2022-09-03T09:56:30;19.50;99.90
16313;DHT22;8265;52.622;13.296;2022-09-03T10:02:45;20.00;99.90
16313;DHT22;8265;52.622;13.296;2022-09-03T10:08:02;20.00;99.90
16313;DHT22;8265;52.622;13.296;2022-09-03T10:13:23;20.20;99.90
16313;DHT22;8265;52.622;13.296;2022-09-03T10:18:43;20.30;99.90
16313;DHT22;8265;52.622;13.296;2022-09-03T10:24:10;20.50;99.90
16313;DHT22;8265;52.622;13.296;2022-09-03T10:29:25;20.70;99.90
16313;DHT22;8265;52.622;13.296;2022-09-03T10:34:47;20.70;99.90
16313;DHT22;8265;52.622;13.296;2022-09-03T10:40:21;20.80;99.90
16313;DHT22;8265;52.622;13.296;2022-09-03T10:45:32;21.20;99.90
16313;DHT22;8265;52.622;13.296;2022-09-03T10:50:50;21.30;99.90
16313;DHT22;8265;52.622;13.296;2022-09-03T10:56:12;21.40;99.90
16313;DHT22;8265;52.622;13.296;2022-09-03T11:01:33;21.20;99.90
16313;DHT22;8265;52.622;13.296;2022-09-03T11:06:53;21.40;99.90
16313;DHT22;8265;52.622;13.296;2022-09-03T11:12:14;21.60;99.80
16313;DHT22;8265;52.622;13.296;2022-09-03T11:17:35;21.20;99.90
16313;DHT22;8265;52.622;13.296;2022-09-03T11:22:55;21.40;99.90
16313;DHT22;8265;52.622;13.296;2022-09-03T11:28:20;21.70;99.80
16313;DHT22;8265;52.622;13.296;2022-09-03T11:33:37;21.70;99.80
16313;DHT22;8265;52.622;13.296;2022-09-03T11:38:57;21.80;99.90
16313;DHT22;8265;52.622;13.296;2022-09-03T11:44:18;22.50;99.90
16313;DHT22;8265;52.622;13.296;2022-09-03T11:49:43;23.10;99.20
16313;DHT22;8265;52.622;13.296;2022-09-03T11:55:00;23.40;98.50
16313;DHT22;8265;52.622;13.296;2022-09-03T12:00:21;22.80;97.20
16313;DHT22;8265;52.622;13.296;2022-09-03T12:05:46;22.60;98.00
16313;DHT22;8265;52.622;13.296;2022-09-03T12:11:08;22.50;97.40
16313;DHT22;8265;52.622;13.296;2022-09-03T12:16:33;22.70;98.00
16313;DHT22;8265;52.622;13.296;2022-09-03T12:21:46;22.70;96.80
16313;DHT22;8265;52.622;13.296;2022-09-03T12:27:06;22.60;98.10
16313;DHT22;8265;52.622;13.296;2022-09-03T12:32:28;22.50;97.70
16313;DHT22;8265;52.622;13.296;2022-09-03T12:37:50;22.40;98.50
16313;DHT22;8265;52.622;13.296;2022-09-03T12:43:16;22.60;96.80
16313;DHT22;8265;52.622;13.296;2022-09-03T12:48:29;22.40;96.50
16313;DHT22;8265;52.622;13.296;2022-09-03T12:53:51;22.30;96.30
16313;DHT22;8265;52.622;13.296;2022-09-03T12:59:12;22.60;95.40
16313;DHT22;8265;52.622;13.296;2022-09-03T13:04:33;23.10;94.70
16313;DHT22;8265;52.622;13.296;2022-09-03T13:09:56;23.20;95.40
16313;DHT22;8265;52.622;13.296;2022-09-03T13:15:18;23.70;95.90
16313;DHT22;8265;52.622;13.296;2022-09-03T13:20:38;24.50;93.20
16313;DHT22;8265;52.622;13.296;2022-09-03T13:25:58;24.50;92.90
16313;DHT22;8265;52.622;13.296;2022-09-03T13:31:23;23.80;92.10
16313;DHT22;8265;52.622;13.296;2022-09-03T13:36:41;24.20;92.00
16313;DHT22;8265;52.622;13.296;2022-09-03T13:42:02;24.10;93.10
16313;DHT22;8265;52.622;13.296;2022-09-03T13:47:24;23.70;91.60
16313;DHT22;8265;52.622;13.296;2022-09-03T13:52:44;23.30;92.50
16313;DHT22;8265;52.622;13.296;2022-09-03T13:58:04;23.20;92.00
16313;DHT22;8265;52.622;13.296;2022-09-03T14:03:29;23.10;93.10
16313;DHT22;8265;52.622;13.296;2022-09-03T14:08:49;22.70;93.00
16313;DHT22;8265;52.622;13.296;2022-09-03T14:14:11;22.60;93.60
16313;DHT22;8265;52.622;13.296;2022-09-03T14:19:33;22.80;93.20
16313;DHT22;8265;52.622;13.296;2022-09-03T14:24:49;23.20;92.60
16313;DHT22;8265;52.622;13.296;2022-09-03T14:30:17;23.50;91.40
16313;DHT22;8265;52.622;13.296;2022-09-03T14:35:37;23.80;90.80
16313;DHT22;8265;52.622;13.296;2022-09-03T14:40:51;24.00;92.40
16313;DHT22;8265;52.622;13.296;2022-09-03T14:46:18;23.60;92.80
16313;DHT22;8265;52.622;13.296;2022-09-03T14:51:41;23.40;91.80
16313;DHT22;8265;52.622;13.296;2022-09-03T14:56:58;23.90;91.50
16313;DHT22;8265;52.622;13.296;2022-09-03T15:07:35;24.90;88.00
16313;DHT22;8265;52.622;13.296;2022-09-03T15:12:57;25.20;86.00
16313;DHT22;8265;52.622;13.296;2022-09-03T15:18:19;24.70;85.50
16313;DHT22;8265;52.622;13.296;2022-09-03T15:23:49;24.90;87.00
16313;DHT22;8265;52.622;13.296;2022-09-03T15:29:09;25.00;86.90
16313;DHT22;8265;52.622;13.296;2022-09-03T15:34:34;24.20;87.00
16313;DHT22;8265;52.622;13.296;2022-09-03T15:39:42;23.50;89.40
16313;DHT22;8265;52.622;13.296;2022-09-03T15:45:03;22.80;90.00
16313;DHT22;8265;52.622;13.296;2022-09-03T15:50:30;22.40;90.70
16313;DHT22;8265;52.622;13.296;2022-09-03T15:55:43;22.90;92.40
16313;DHT22;8265;52.622;13.296;2022-09-03T16:01:05;23.40;90.30
16313;DHT22;8265;52.622;13.296;2022-09-03T16:06:30;23.30;91.30
16313;DHT22;8265;52.622;13.296;2022-09-03T16:11:54;22.90;91.40
16313;DHT22;8265;52.622;13.296;2022-09-03T16:17:12;22.40;90.60
16313;DHT22;8265;52.622;13.296;2022-09-03T16:22:29;22.00;91.40
16313;DHT22;8265;52.622;13.296;2022-09-03T16:27:53;21.90;93.10
16313;DHT22;8265;52.622;13.296;2022-09-03T16:33:11;21.60;91.60
16313;DHT22;8265;52.622;13.296;2022-09-03T16:38:37;21.60;92.10
16313;DHT22;8265;52.622;13.296;2022-09-03T16:43:56;21.40;92.50
16313;DHT22;8265;52.622;13.296;2022-09-03T16:49:36;21.20;93.30
16313;DHT22;8265;52.622;13.296;2022-09-03T16:54:42;21.20;95.00
16313;DHT22;8265;52.622;13.296;2022-09-03T17:00:09;21.20;96.00
16313;DHT22;8265;52.622;13.296;2022-09-03T17:05:40;21.20;96.30
16313;DHT22;8265;52.622;13.296;2022-09-03T17:10:40;21.20;96.90
16313;DHT22;8265;52.622;13.296;2022-09-03T17:15:59;20.80;97.30
16313;DHT22;8265;52.622;13.296;2022-09-03T17:21:30;20.50;96.40
16313;DHT22;8265;52.622;13.296;2022-09-03T17:26:44;20.20;97.30
16313;DHT22;8265;52.622;13.296;2022-09-03T17:32:02;20.10;96.90
16313;DHT22;8265;52.622;13.296;2022-09-03T17:37:25;19.90;97.50
16313;DHT22;8265;52.622;13.296;2022-09-03T17:42:48;19.50;96.80
16313;DHT22;8265;52.622;13.296;2022-09-03T17:48:28;19.10;97.20
16313;DHT22;8265;52.622;13.296;2022-09-03T17:53:27;18.70;98.80
16313;DHT22;8265;52.622;13.296;2022-09-03T17:58:48;18.50;98.70
16313;DHT22;8265;52.622;13.296;2022-09-03T18:04:14;18.20;98.70
16313;DHT22;8265;52.622;13.296;2022-09-03T18:09:29;18.10;99.70
16313;DHT22;8265;52.622;13.296;2022-09-03T18:14:49;18.00;99.80
16313;DHT22;8265;52.622;13.296;2022-09-03T18:20:10;17.90;99.90
16313;DHT22;8265;52.622;13.296;2022-09-03T18:25:31;17.70;99.90
16313;DHT22;8265;52.622;13.296;2022-09-03T18:30:51;17.60;99.90
16313;DHT22;8265;52.622;13.296;2022-09-03T18:36:12;17.50;99.90
16313;DHT22;8265;52.622;13.296;2022-09-03T18:41:50;17.40;99.90
16313;DHT22;8265;52.622;13.296;2022-09-03T18:46:56;17.30;99.90
16313;DHT22;8265;52.622;13.296;2022-09-03T18:52:17;17.20;99.90
16313;DHT22;8265;52.622;13.296;2022-09-03T18:57:39;17.10;99.90
16313;DHT22;8265;52.622;13.296;2022-09-03T19:03:09;17.30;99.90
16313;DHT22;8265;52.622;13.296;2022-09-03T19:08:19;17.20;99.90
16313;DHT22;8265;52.622;13.296;2022-09-03T19:13:39;17.30;99.90
16313;DHT22;8265;52.622;13.296;2022-09-03T19:19:16;17.30;99.90
16313;DHT22;8265;52.622;13.296;2022-09-03T19:24:22;17.20;99.90
16313;DHT22;8265;52.622;13.296;2022-09-03T19:29:52;17.10;99.90
16313;DHT22;8265;52.622;13.296;2022-09-03T19:35:09;17.10;99.90
16313;DHT22;8265;52.622;13.296;2022-09-03T19:40:36;17.10;99.90
16313;DHT22;8265;52.622;13.296;2022-09-03T19:45:52;17.10;99.90
16313;DHT22;8265;52.622;13.296;2022-09-03T19:51:07;16.90;99.90
16313;DHT22;8265;52.622;13.296;2022-09-03T19:56:29;16.70;99.90
16313;DHT22;8265;52.622;13.296;2022-09-03T20:01:48;16.70;99.90
16313;DHT22;8265;52.622;13.296;2022-09-03T20:07:09;16.70;99.90
16313;DHT22;8265;52.622;13.296;2022-09-03T20:12:31;16.70;99.90
16313;DHT22;8265;52.622;13.296;2022-09-03T20:17:54;16.80;99.90
16313;DHT22;8265;52.622;13.296;2022-09-03T20:23:15;17.10;99.90
16313;DHT22;8265;52.622;13.296;2022-09-03T20:28:39;17.20;99.90
16313;DHT22;8265;52.622;13.296;2022-09-03T20:34:03;17.10;99.90
16313;DHT22;8265;52.622;13.296;2022-09-03T20:39:22;17.20;99.90
16313;DHT22;8265;52.622;13.296;2022-09-03T20:44:54;17.00;99.90
16313;DHT22;8265;52.622;13.296;2022-09-03T20:49:59;17.00;99.90
16313;DHT22;8265;52.622;13.296;2022-09-03T20:55:20;16.90;99.90
16313;DHT22;8265;52.622;13.296;2022-09-03T21:00:45;16.80;99.90
16313;DHT22;8265;52.622;13.296;2022-09-03T21:06:08;16.70;99.90
16313;DHT22;8265;52.622;13.296;2022-09-03T21:11:21;16.60;99.90
16313;DHT22;8265;52.622;13.296;2022-09-03T21:16:45;16.50;99.90
16313;DHT22;8265;52.622;13.296;2022-09-03T21:22:03;16.40;99.90
16313;DHT22;8265;52.622;13.296;2022-09-03T21:27:24;16.50;99.90
16313;DHT22;8265;52.622;13.296;2022-09-03T21:32:46;16.50;99.90
16313;DHT22;8265;52.622;13.296;2022-09-03T21:38:06;16.50;99.90
16313;DHT22;8265;52.622;13.296;2022-09-03T21:43:27;16.50;99.90
16313;DHT22;8265;52.622;13.296;2022-09-03T21:48:48;16.50;99.90
16313;DHT22;8265;52.622;13.296;2022-09-03T21:54:09;16.40;99.90
16313;DHT22;8265;52.622;13.296;2022-09-03T21:59:43;16.50;99.90
16313;DHT22;8265;52.622;13.296;2022-09-03T22:04:50;16.50;99.90
16313;DHT22;8265;52.622;13.296;2022-09-03T22:10:14;16.60;99.90
16313;DHT22;8265;52.622;13.296;2022-09-03T22:15:32;16.70;99.90
16313;DHT22;8265;52.622;13.296;2022-09-03T22:20:56;16.90;99.90
16313;DHT22;8265;52.622;13.296;2022-09-03T22:26:19;17.10;99.90
16313;DHT22;8265;52.622;13.296;2022-09-03T22:31:47;17.30;99.90
16313;DHT22;8265;52.622;13.296;2022-09-03T22:36:57;17.30;99.90
16313;DHT22;8265;52.622;13.296;2022-09-03T22:42:25;17.10;99.90
16313;DHT22;8265;52.622;13.296;2022-09-03T22:47:40;17.10;99.90
16313;DHT22;8265;52.622;13.296;2022-09-03T22:53:03;17.10;99.90
16313;DHT22;8265;52.622;13.296;2022-09-03T22:58:21;17.00;99.90
16313;DHT22;8265;52.622;13.296;2022-09-03T23:03:44;17.00;99.90
16313;DHT22;8265;52.622;13.296;2022-09-03T23:09:03;17.00;99.90
16313;DHT22;8265;52.622;13.296;2022-09-03T23:14:24;17.00;99.90
16313;DHT22;8265;52.622;13.296;2022-09-03T23:19:45;17.00;99.90
16313;DHT22;8265;52.622;13.296;2022-09-03T23:25:07;17.00;99.90
16313;DHT22;8265;52.622;13.296;2022-09-03T23:30:26;16.80;99.90
16313;DHT22;8265;52.622;13.296;2022-09-03T23:35:51;16.60;99.90
16313;DHT22;8265;52.622;13.296;2022-09-03T23:41:09;16.50;99.90
16313;DHT22;8265;52.622;13.296;2022-09-03T23:46:31;16.50;99.90
16313;DHT22;8265;52.622;13.296;2022-09-03T23:51:56;16.40;99.90
16313;DHT22;8265;52.622;13.296;2022-09-03T23:57:15;16.50;99.90
